Time;durP1;ratioP1;P1;durP2;ratioP2;P2;SDS_P1;SDS_P2;PMS_P1;PMS_P2;Temp;Humidity;BMP_temperature;BMP_pressure;BME280_temperature;BME280_humidity;BME280_pressure;Samples;Min_cycle;Max_cycle;Signal;HPM_P1;HPM_P2
2021/12/28 00:03:04;;;;;;;9.00;2.27;;;;;;;;;;10252069;28;20508;-76
2021/12/28 00:08:09;;;;;;;8.50;4.30;;;;;;;;;;10249060;28;20348;-77
2021/12/28 00:13:12;;;;;;;4.28;2.13;;;;;;;;;;10284263;28;20039;-76
2021/12/28 00:18:15;;;;;;;4.35;2.50;;;;;;;;;;10263397;28;20485;-74
2021/12/28 00:23:21;;;;;;;7.23;3.63;;;;;;;;;;10254355;28;20062;-74
2021/12/28 00:28:24;;;;;;;6.55;3.50;;;;;;;;;;10275689;28;20050;-74
2021/12/28 00:33:27;;;;;;;4.83;2.43;;;;;;;;;;10280698;28;20043;-75
2021/12/28 00:38:32;;;;;;;5.85;2.85;;;;;;;;;;10258233;28;20042;-76
2021/12/28 00:43:35;;;;;;;3.03;1.23;;;;;;;;;;10280900;28;20129;-76
2021/12/28 00:48:38;;;;;;;3.08;2.03;;;;;;;;;;10266904;28;21329;-76
2021/12/28 00:53:43;;;;;;;2.63;1.40;;;;;;;;;;10285465;28;20150;-75
2021/12/28 00:58:45;;;;;;;;;;;;;;;;;;10260458;28;20043;-77
2021/12/28 01:03:48;;;;;;;4.20;2.00;;;;;;;;;;10280871;28;20314;-75
2021/12/28 01:08:58;;;;;;;4.10;1.95;;;;;;;;;;10255504;28;20046;-76
2021/12/28 01:14:00;;;;;;;;;;;;;;;;;;10251612;28;20051;-75
2021/12/28 01:19:05;;;;;;;3.10;1.75;;;;;;;;;;10272865;28;19937;-76
2021/12/28 01:24:09;;;;;;;2.15;1.33;;;;;;;;;;10259378;28;20039;-76
2021/12/28 01:29:12;;;;;;;3.13;1.63;;;;;;;;;;10274783;28;20213;-75
2021/12/28 01:34:16;;;;;;;4.68;1.23;;;;;;;;;;10266024;23;20043;-74
2021/12/28 01:39:20;;;;;;;10.30;2.57;;;;;;;;;;10248800;28;20043;-75
2021/12/28 01:44:23;;;;;;;10.53;2.47;;;;;;;;;;10238426;28;20044;-75
2021/12/28 01:49:26;;;;;;;3.13;1.87;;;;;;;;;;10219501;28;20166;-74
2021/12/28 01:54:30;;;;;;;6.93;2.23;;;;;;;;;;10225863;28;20046;-75
2021/12/28 01:59:33;;;;;;;;;;;;;;;;;;10235843;28;20085;-74
2021/12/28 02:04:36;;;;;;;2.50;1.37;;;;;;;;;;10219442;28;19957;-74
2021/12/28 02:09:40;;;;;;;1.30;1.03;;;;;;;;;;10214063;28;20047;-73
2021/12/28 02:14:44;;;;;;;;;;;;;;;;;;10224777;28;20563;-74
2021/12/28 02:19:47;;;;;;;2.85;1.42;;;;;;;;;;10226751;28;19931;-73
2021/12/28 02:24:52;;;;;;;5.63;2.10;;;;;;;;;;10227487;28;20035;-73
2021/12/28 02:29:54;;;;;;;;;;;;;;;;;;10235438;28;20458;-74
2021/12/28 02:34:57;;;;;;;3.13;1.30;;;;;;;;;;10219756;28;19926;-74
2021/12/28 02:40:02;;;;;;;2.43;0.80;;;;;;;;;;10228561;28;20361;-75
2021/12/28 02:45:09;;;;;;;2.13;1.00;;;;;;;;;;10220361;28;20143;-75
2021/12/28 02:50:14;;;;;;;3.33;1.20;;;;;;;;;;10232109;28;20046;-74
2021/12/28 02:55:20;;;;;;;2.85;1.17;;;;;;;;;;10213460;28;20046;-75
2021/12/28 03:00:30;;;;;;;7.83;2.23;;;;;;;;;;10244902;28;20564;-74
2021/12/28 03:05:34;;;;;;;2.17;1.53;;;;;;;;;;10231320;28;20046;-75
2021/12/28 03:10:40;;;;;;;6.40;2.65;;;;;;;;;;10239729;28;20479;-74
2021/12/28 03:15:44;;;;;;;2.03;0.97;;;;;;;;;;10211259;28;20042;-75
2021/12/28 03:20:47;;;;;;;5.28;1.67;;;;;;;;;;10220646;28;20563;-75
2021/12/28 03:25:53;;;;;;;2.90;1.27;;;;;;;;;;10235960;28;20471;-74
2021/12/28 03:30:57;;;;;;;2.33;1.07;;;;;;;;;;10243501;28;20094;-74
2021/12/28 03:36:00;;;;;;;2.80;1.30;;;;;;;;;;10229234;28;20063;-74
2021/12/28 03:41:07;;;;;;;4.17;1.70;;;;;;;;;;10230415;28;20423;-74
2021/12/28 03:46:10;;;;;;;1.50;0.77;;;;;;;;;;10236544;28;20105;-74
2021/12/28 03:51:14;;;;;;;1.87;1.00;;;;;;;;;;10276402;28;20058;-74
2021/12/28 03:56:18;;;;;;;2.10;0.80;;;;;;;;;;10250287;28;20051;-74
2021/12/28 04:01:21;;;;;;;;;;;;;;;;;;10246566;28;20098;-74
2021/12/28 04:06:24;;;;;;;2.83;0.80;;;;;;;;;;10264300;28;19950;-74
2021/12/28 04:11:28;;;;;;;1.43;0.73;;;;;;;;;;10268029;28;20039;-74
2021/12/28 04:16:31;;;;;;;;;;;;;;;;;;10255617;28;20035;-76
2021/12/28 04:21:35;;;;;;;1.67;0.60;;;;;;;;;;10278193;28;19958;-75
2021/12/28 04:26:39;;;;;;;2.63;1.30;;;;;;;;;;10253354;28;20027;-74
2021/12/28 04:31:41;;;;;;;;;;;;;;;;;;10245201;28;20337;-75
2021/12/28 04:36:45;;;;;;;1.97;1.00;;;;;;;;;;10241054;28;19969;-74
2021/12/28 04:41:49;;;;;;;0.77;0.60;;;;;;;;;;10239219;28;20114;-75
2021/12/28 04:46:53;;;;;;;2.60;0.47;;;;;;;;;;10241245;28;20503;-74
2021/12/28 04:51:56;;;;;;;0.97;0.57;;;;;;;;;;10229127;28;20476;-74
2021/12/28 04:57:01;;;;;;;0.63;0.50;;;;;;;;;;10229018;28;20066;-74
2021/12/28 05:02:04;;;;;;;1.83;0.50;;;;;;;;;;10241522;28;20027;-75
2021/12/28 05:07:07;;;;;;;0.73;0.20;;;;;;;;;;10244918;28;20123;-75
2021/12/28 05:12:12;;;;;;;3.87;1.10;;;;;;;;;;10242499;28;20303;-75
2021/12/28 05:17:15;;;;;;;1.07;0.77;;;;;;;;;;10227147;28;20035;-74
2021/12/28 05:22:17;;;;;;;0.37;0.30;;;;;;;;;;10219643;28;20039;-74
2021/12/28 05:27:22;;;;;;;1.83;1.00;;;;;;;;;;10212516;28;20130;-74
2021/12/28 05:32:25;;;;;;;3.43;0.73;;;;;;;;;;10233924;28;20044;-75
2021/12/28 05:37:28;;;;;;;1.87;0.87;;;;;;;;;;10231266;28;20039;-75
2021/12/28 05:42:33;;;;;;;2.10;1.07;;;;;;;;;;10229056;28;20467;-73
2021/12/28 05:47:36;;;;;;;0.60;0.60;;;;;;;;;;10240662;28;20035;-74
2021/12/28 05:52:39;;;;;;;2.97;1.17;;;;;;;;;;10224012;28;20087;-74
2021/12/28 05:57:43;;;;;;;0.57;0.45;;;;;;;;;;10262111;23;20046;-73
2021/12/28 06:02:46;;;;;;;;;;;;;;;;;;10249865;28;20444;-75
2021/12/28 06:07:49;;;;;;;1.07;0.60;;;;;;;;;;10261078;28;19945;-75
2021/12/28 06:12:53;;;;;;;1.93;0.67;;;;;;;;;;10226032;28;20036;-73
2021/12/28 06:17:57;;;;;;;1.17;0.77;;;;;;;;;;10211353;28;20035;-74
2021/12/28 06:23:00;;;;;;;2.10;0.63;;;;;;;;;;10229375;28;20042;-74
2021/12/28 06:28:05;;;;;;;1.80;0.83;;;;;;;;;;10267338;28;20039;-74
2021/12/28 06:33:08;;;;;;;0.80;0.60;;;;;;;;;;10275892;28;20031;-74
2021/12/28 06:38:11;;;;;;;5.90;0.60;;;;;;;;;;10257215;28;20101;-74
2021/12/28 06:43:15;;;;;;;2.67;1.27;;;;;;;;;;10275084;28;20045;-74
2021/12/28 06:48:18;;;;;;;1.20;0.57;;;;;;;;;;10261626;28;20043;-75
2021/12/28 06:53:21;;;;;;;1.53;0.90;;;;;;;;;;10276562;28;20039;-74
2021/12/28 06:58:25;;;;;;;2.13;0.60;;;;;;;;;;10275616;28;20110;-72
2021/12/28 07:03:28;;;;;;;0.63;0.33;;;;;;;;;;10274391;28;20049;-75
2021/12/28 07:08:31;;;;;;;0.00;0.00;;;;;;;;;;10271878;28;20050;-72
2021/12/28 07:13:35;;;;;;;2.60;0.50;;;;;;;;;;10270726;28;20121;-72
2021/12/28 07:18:37;;;;;;;;;;;;;;;;;;10273913;28;20065;-73
2021/12/28 07:23:41;;;;;;;1.33;0.70;;;;;;;;;;10271958;28;19928;-74
2021/12/28 07:28:45;;;;;;;1.13;0.60;;;;;;;;;;10275127;28;20039;-73
2021/12/28 07:33:48;;;;;;;;;;;;;;;;;;10260074;28;20047;-75
2021/12/28 07:38:51;;;;;;;2.87;0.60;;;;;;;;;;10268986;28;19929;-72
2021/12/28 07:43:55;;;;;;;2.10;0.70;;;;;;;;;;10275071;28;20039;-74
2021/12/28 07:48:58;;;;;;;;;;;;;;;;;;10265831;28;20428;-73
2021/12/28 07:54:00;;;;;;;1.23;0.90;;;;;;;;;;10280591;28;19933;-76
2021/12/28 07:59:05;;;;;;;1.03;0.40;;;;;;;;;;10272356;28;20057;-73
2021/12/28 08:04:08;;;;;;;2.73;1.10;;;;;;;;;;10287749;28;20423;-76
2021/12/28 08:09:11;;;;;;;0.93;0.43;;;;;;;;;;10265942;28;20126;-74
2021/12/28 08:14:15;;;;;;;4.55;0.60;;;;;;;;;;10272954;28;20031;-76
2021/12/28 08:19:18;;;;;;;0.50;0.47;;;;;;;;;;10272332;28;20041;-76
2021/12/28 08:24:21;;;;;;;1.73;0.63;;;;;;;;;;10267847;28;20042;-74
2021/12/28 08:29:25;;;;;;;0.75;0.28;;;;;;;;;;10272961;28;20400;-75
2021/12/28 08:34:28;;;;;;;;;;;;;;;;;;10275257;28;20110;-75
2021/12/28 08:39:31;;;;;;;1.63;0.83;;;;;;;;;;10269994;28;19930;-75
2021/12/28 08:44:35;;;;;;;1.90;0.90;;;;;;;;;;10293713;28;20038;-74
2021/12/28 08:49:38;;;;;;;4.13;0.98;;;;;;;;;;10289368;28;20038;-75
2021/12/28 08:54:41;;;;;;;1.67;1.10;;;;;;;;;;10257377;28;20537;-75
2021/12/28 08:59:45;;;;;;;2.35;1.10;;;;;;;;;;10275520;28;20030;-75
2021/12/28 09:04:48;;;;;;;6.70;2.08;;;;;;;;;;10273879;28;20550;-76
2021/12/28 09:09:51;;;;;;;4.10;1.95;;;;;;;;;;10273937;28;20237;-74
2021/12/28 09:14:56;;;;;;;6.70;1.88;;;;;;;;;;10266025;28;20230;-73
2021/12/28 09:19:58;;;;;;;;;;;;;;;;;;10271271;28;20074;-75
2021/12/28 09:25:01;;;;;;;6.70;1.98;;;;;;;;;;10258227;28;19926;-72
2021/12/28 09:30:06;;;;;;;5.90;1.92;;;;;;;;;;10273033;28;20042;-71
2021/12/28 09:35:10;;;;;;;4.10;1.05;;;;;;;;;;10268561;28;20047;-72
2021/12/28 09:40:13;;;;;;;2.33;1.25;;;;;;;;;;10275075;28;20026;-72
2021/12/28 09:45:18;;;;;;;2.38;1.60;;;;;;;;;;10261203;28;20125;-73
2021/12/28 09:50:21;;;;;;;8.65;2.55;;;;;;;;;;10279558;28;20063;-73
2021/12/28 09:55:25;;;;;;;5.65;1.15;;;;;;;;;;10276131;28;20035;-71
2021/12/28 10:00:29;;;;;;;7.18;1.83;;;;;;;;;;10261564;28;20038;-71
2021/12/28 10:05:48;;;;;;;7.95;2.20;;;;;;;;;;10253577;28;20086;-76
2021/12/28 10:10:55;;;;;;;2.35;1.02;;;;;;;;;;10274926;28;20635;-74
2021/12/28 10:16:07;;;;;;;2.80;1.47;;;;;;;;;;10260872;28;20131;-72
2021/12/28 10:21:10;;;;;;;5.32;1.38;;;;;;;;;;10262643;28;20296;-73
2021/12/28 10:26:15;;;;;;;5.40;1.60;;;;;;;;;;10267028;28;20046;-73
2021/12/28 10:31:21;;;;;;;5.53;2.10;;;;;;;;;;10254609;28;20426;-73
2021/12/28 10:36:31;;;;;;;3.75;1.42;;;;;;;;;;10303390;28;20050;-76
2021/12/28 10:41:42;;;;;;;10.35;1.83;;;;;;;;;;10262503;28;20423;-74
2021/12/28 10:46:46;;;;;;;1.50;0.88;;;;;;;;;;10261237;28;20075;-76
2021/12/28 10:51:52;;;;;;;2.72;0.57;;;;;;;;;;10272575;28;20117;-76
2021/12/28 10:56:57;;;;;;;0.60;0.30;;;;;;;;;;10263599;28;20047;-74
2021/12/28 11:02:02;;;;;;;1.40;0.68;;;;;;;;;;10266415;28;20480;-74
2021/12/28 11:07:07;;;;;;;2.88;1.23;;;;;;;;;;10292206;28;20665;-74
2021/12/28 11:12:10;;;;;;;3.97;1.60;;;;;;;;;;10262231;28;20058;-75
2021/12/28 11:17:14;;;;;;;1.58;0.90;;;;;;;;;;10265478;28;20141;-76
2021/12/28 11:22:17;;;;;;;1.27;0.82;;;;;;;;;;10261957;28;20582;-76
2021/12/28 11:27:22;;;;;;;2.22;1.10;;;;;;;;;;10278069;28;20054;-74
2021/12/28 11:32:34;;;;;;;2.35;1.17;;;;;;;;;;10276027;28;20558;-76
2021/12/28 11:37:37;;;;;;;1.83;0.75;;;;;;;;;;10259023;28;20690;-73
2021/12/28 11:42:40;;;;;;;2.15;0.90;;;;;;;;;;10254556;28;20136;-73
2021/12/28 11:47:44;;;;;;;3.58;0.88;;;;;;;;;;10275277;28;20082;-75
2021/12/28 11:52:47;;;;;;;;;;;;;;;;;;10266140;28;20039;-73
2021/12/28 11:57:51;;;;;;;2.38;1.20;;;;;;;;;;10282309;28;19949;-76
2021/12/28 12:02:56;;;;;;;7.03;0.90;;;;;;;;;;10235849;23;20047;-76
2021/12/28 12:08:05;;;;;;;2.17;1.20;;;;;;;;;;10180736;29;20040;-77
2021/12/28 12:13:18;;;;;;;1.20;0.95;;;;;;;;;;10212145;29;20036;-76
2021/12/28 12:18:24;;;;;;;3.73;0.70;;;;;;;;;;10179696;29;20055;-77
2021/12/28 12:23:28;;;;;;;1.83;0.93;;;;;;;;;;10187575;29;20514;-77
2021/12/28 12:28:32;;;;;;;1.00;0.60;;;;;;;;;;10194004;28;20136;-73
2021/12/28 12:33:38;;;;;;;0.93;0.60;;;;;;;;;;10213979;28;20159;-77
2021/12/28 12:38:42;;;;;;;2.55;1.30;;;;;;;;;;10209232;29;20139;-77
2021/12/28 12:43:47;;;;;;;1.53;0.83;;;;;;;;;;10184662;29;20068;-77
2021/12/28 12:49:10;;;;;;;3.25;0.95;;;;;;;;;;10191792;29;20114;-75
2021/12/28 12:54:25;;;;;;;1.83;1.00;;;;;;;;;;10198737;29;20161;-77
2021/12/28 12:59:29;;;;;;;1.75;0.90;;;;;;;;;;10192979;29;20047;-77
2021/12/28 13:04:46;;;;;;;1.08;0.63;;;;;;;;;;10204110;29;20047;-78
2021/12/28 13:09:57;;;;;;;0.60;0.60;;;;;;;;;;10199097;29;20051;-77
2021/12/28 13:15:02;;;;;;;1.27;0.77;;;;;;;;;;10180769;29;20044;-79
2021/12/28 13:20:07;;;;;;;2.40;0.80;;;;;;;;;;10207487;29;20043;-77
2021/12/28 13:25:13;;;;;;;1.80;0.85;;;;;;;;;;10190472;29;20060;-79
2021/12/28 13:30:21;;;;;;;0.98;0.65;;;;;;;;;;10209047;29;20043;-80
2021/12/28 13:35:45;;;;;;;0.75;0.50;;;;;;;;;;10230182;23;20050;-73
2021/12/28 13:40:53;;;;;;;1.10;0.70;;;;;;;;;;10260174;28;20054;-72
2021/12/28 13:45:57;;;;;;;1.23;0.70;;;;;;;;;;10271910;28;20583;-73
2021/12/28 13:51:08;;;;;;;0.40;0.30;;;;;;;;;;10272786;28;20046;-74
2021/12/28 13:56:11;;;;;;;;;;;;;;;;;;10260036;28;20082;-74
2021/12/28 14:01:17;;;;;;;0.40;0.40;;;;;;;;;;10271334;28;19930;-74
2021/12/28 14:06:20;;;;;;;1.33;0.55;;;;;;;;;;10282261;28;20078;-74
2021/12/28 14:11:30;;;;;;;0.98;0.70;;;;;;;;;;10279362;28;20031;-74
2021/12/28 14:16:50;;;;;;;1.10;0.70;;;;;;;;;;10269811;28;20039;-74
2021/12/28 14:21:53;;;;;;;0.82;0.65;;;;;;;;;;10270043;28;20075;-75
2021/12/28 14:26:57;;;;;;;0.93;0.37;;;;;;;;;;10255411;28;20049;-73
2021/12/28 14:32:02;;;;;;;1.25;0.63;;;;;;;;;;10258267;28;20042;-72
2021/12/28 14:37:06;;;;;;;0.20;0.20;;;;;;;;;;10252697;28;20046;-73
2021/12/28 14:42:11;;;;;;;0.40;0.20;;;;;;;;;;10251484;28;20075;-74
2021/12/28 14:47:16;;;;;;;0.10;0.10;;;;;;;;;;10266517;28;20541;-73
2021/12/28 14:52:20;;;;;;;0.30;0.15;;;;;;;;;;10253893;28;20431;-74
2021/12/28 14:57:23;;;;;;;0.70;0.38;;;;;;;;;;10261623;28;20062;-76
2021/12/28 15:02:28;;;;;;;2.38;0.40;;;;;;;;;;10252670;28;20126;-74
2021/12/28 15:07:30;;;;;;;;;;;;;;;;;;10264847;28;20110;-72
2021/12/28 15:12:37;;;;;;;1.83;0.50;;;;;;;;;;10276989;28;20032;-72
2021/12/28 15:17:42;;;;;;;0.35;0.30;;;;;;;;;;10286560;28;20149;-72
2021/12/28 15:22:45;;;;;;;0.80;0.43;;;;;;;;;;10267599;28;20662;-71
2021/12/28 15:27:48;;;;;;;0.60;0.15;;;;;;;;;;10264319;28;20039;-72
2021/12/28 15:32:53;;;;;;;0.90;0.50;;;;;;;;;;10276760;28;20046;-71
2021/12/28 15:38:01;;;;;;;0.50;0.30;;;;;;;;;;10260261;28;20050;-70
2021/12/28 15:43:05;;;;;;;3.00;0.98;;;;;;;;;;10267298;28;20528;-71
2021/12/28 15:48:09;;;;;;;0.20;0.20;;;;;;;;;;10253451;28;20051;-72
2021/12/28 15:53:12;;;;;;;0.47;0.47;;;;;;;;;;10273356;28;20126;-73
2021/12/28 15:58:15;;;;;;;0.20;0.13;;;;;;;;;;10280116;28;20064;-72
2021/12/28 16:03:19;;;;;;;0.63;0.40;;;;;;;;;;10283834;28;20030;-74
2021/12/28 16:08:23;;;;;;;2.28;1.00;;;;;;;;;;10282220;28;20689;-72
2021/12/28 16:13:25;;;;;;;0.55;0.47;;;;;;;;;;10277778;28;20042;-74
2021/12/28 16:18:30;;;;;;;2.03;0.90;;;;;;;;;;10257232;28;20053;-75
2021/12/28 16:23:33;;;;;;;0.65;0.40;;;;;;;;;;10288827;28;20126;-74
2021/12/28 16:28:53;;;;;;;0.70;0.40;;;;;;;;;;10261926;28;20049;-72
2021/12/28 16:33:57;;;;;;;0.90;0.70;;;;;;;;;;10259186;28;20089;-73
2021/12/28 16:39:00;;;;;;;0.68;0.40;;;;;;;;;;10262153;28;20039;-73
2021/12/28 16:44:03;;;;;;;0.32;0.17;;;;;;;;;;10273862;28;20130;-72
2021/12/28 16:49:08;;;;;;;0.03;0.03;;;;;;;;;;10271140;28;20491;-73
2021/12/28 16:54:11;;;;;;;0.90;0.52;;;;;;;;;;10269267;28;20515;-74
2021/12/28 16:59:14;;;;;;;0.30;0.30;;;;;;;;;;10272393;28;20132;-73
2021/12/28 17:04:19;;;;;;;0.45;0.30;;;;;;;;;;10257837;28;20054;-73
2021/12/28 17:09:23;;;;;;;0.80;0.57;;;;;;;;;;10277066;28;20049;-73
2021/12/28 17:14:40;;;;;;;2.15;0.70;;;;;;;;;;10259211;28;20503;-71
2021/12/28 17:19:44;;;;;;;1.20;0.63;;;;;;;;;;10274521;28;20499;-71
2021/12/28 17:24:47;;;;;;;6.80;2.67;;;;;;;;;;10258221;28;20130;-75
2021/12/28 17:29:50;;;;;;;0.50;0.40;;;;;;;;;;10252075;28;20047;-75
2021/12/28 17:34:54;;;;;;;1.33;0.30;;;;;;;;;;10268555;28;20508;-72
2021/12/28 17:39:59;;;;;;;1.15;0.57;;;;;;;;;;10274180;28;20038;-73
2021/12/28 17:45:03;;;;;;;0.32;0.30;;;;;;;;;;10273942;28;20125;-73
2021/12/28 17:50:10;;;;;;;0.95;0.30;;;;;;;;;;10256527;28;20111;-71
2021/12/28 17:55:13;;;;;;;1.33;0.63;;;;;;;;;;10280754;28;20179;-73
2021/12/28 18:00:17;;;;;;;0.17;0.17;;;;;;;;;;10312734;23;20451;-71
2021/12/28 18:05:21;;;;;;;0.40;0.40;;;;;;;;;;10302908;28;20109;-72
2021/12/28 18:10:24;;;;;;;0.50;0.40;;;;;;;;;;10307067;28;20061;-72
2021/12/28 18:15:27;;;;;;;0.30;0.20;;;;;;;;;;10284483;28;20073;-71
2021/12/28 18:20:32;;;;;;;0.40;0.40;;;;;;;;;;10304133;28;20475;-72
2021/12/28 18:25:35;;;;;;;0.60;0.45;;;;;;;;;;10306859;28;20085;-71
2021/12/28 18:30:38;;;;;;;0.55;0.43;;;;;;;;;;10289375;28;20050;-73
2021/12/28 18:35:44;;;;;;;0.40;0.40;;;;;;;;;;10297767;28;20041;-72
2021/12/28 18:40:49;;;;;;;1.80;0.65;;;;;;;;;;10285961;28;20349;-73
2021/12/28 18:45:52;;;;;;;3.70;0.57;;;;;;;;;;10307832;28;20043;-73
2021/12/28 18:50:58;;;;;;;0.27;0.27;;;;;;;;;;10326106;28;20062;-72
2021/12/28 18:56:02;;;;;;;0.60;0.30;;;;;;;;;;10303966;28;20047;-72
2021/12/28 19:01:07;;;;;;;;;;;;;;;;;;10291075;28;20100;-72
2021/12/28 19:06:12;;;;;;;0.13;0.10;;;;;;;;;;10304619;28;19922;-71
2021/12/28 19:11:15;;;;;;;1.00;0.20;;;;;;;;;;10281612;28;20041;-72
2021/12/28 19:16:19;;;;;;;0.10;0.10;;;;;;;;;;10291455;28;20042;-71
2021/12/28 19:21:23;;;;;;;0.32;0.10;;;;;;;;;;10314356;28;20050;-72
2021/12/28 19:26:26;;;;;;;1.35;0.30;;;;;;;;;;10310320;28;20109;-72
2021/12/28 19:31:29;;;;;;;1.65;0.32;;;;;;;;;;10307458;28;20088;-73
2021/12/28 19:36:34;;;;;;;4.63;0.57;;;;;;;;;;10301998;28;20038;-71
2021/12/28 19:41:37;;;;;;;0.45;0.20;;;;;;;;;;10309040;23;20070;-73
2021/12/28 19:46:40;;;;;;;2.42;0.60;;;;;;;;;;10303880;28;20051;-73
2021/12/28 19:51:44;;;;;;;2.28;0.55;;;;;;;;;;10329601;28;20102;-73
2021/12/28 19:56:52;;;;;;;1.23;0.70;;;;;;;;;;10331240;28;20057;-73
2021/12/28 20:01:55;;;;;;;1.00;0.63;;;;;;;;;;10300620;28;20039;-73
2021/12/28 20:07:00;;;;;;;0.23;0.23;;;;;;;;;;10320046;28;20047;-74
2021/12/28 20:12:04;;;;;;;2.00;0.88;;;;;;;;;;10320703;28;20396;-73
2021/12/28 20:17:07;;;;;;;3.17;1.02;;;;;;;;;;10321865;28;20049;-73
2021/12/28 20:22:16;;;;;;;0.70;0.25;;;;;;;;;;10306121;28;20108;-72
2021/12/28 20:27:20;;;;;;;3.88;1.60;;;;;;;;;;10302490;28;20037;-73
2021/12/28 20:32:24;;;;;;;3.13;1.30;;;;;;;;;;10300611;28;20106;-73
2021/12/28 20:37:30;;;;;;;2.50;1.10;;;;;;;;;;10283571;28;20527;-74
2021/12/28 20:42:33;;;;;;;2.75;1.27;;;;;;;;;;10302031;28;20145;-73
2021/12/28 20:47:36;;;;;;;1.20;0.80;;;;;;;;;;10295184;28;20379;-73
2021/12/28 20:52:41;;;;;;;1.73;0.82;;;;;;;;;;10285709;28;20034;-73
2021/12/28 20:57:44;;;;;;;0.63;0.63;;;;;;;;;;10291735;28;20035;-73
2021/12/28 21:02:47;;;;;;;0.47;0.47;;;;;;;;;;10282940;28;20062;-73
2021/12/28 21:07:55;;;;;;;0.50;0.50;;;;;;;;;;10280081;28;20046;-74
2021/12/28 21:12:58;;;;;;;1.60;1.33;;;;;;;;;;10295748;28;20119;-73
2021/12/28 21:18:12;;;;;;;0.73;0.37;;;;;;;;;;10296108;28;20039;-73
2021/12/28 21:23:16;;;;;;;1.17;0.50;;;;;;;;;;10291056;28;20081;-73
2021/12/28 21:28:18;;;;;;;;;;;;;;;;;;10272884;28;20133;-72
2021/12/28 21:33:24;;;;;;;2.28;1.00;;;;;;;;;;10281127;28;20021;-73
2021/12/28 21:38:28;;;;;;;0.50;0.35;;;;;;;;;;10283799;28;20130;-73
2021/12/28 21:43:32;;;;;;;0.43;0.43;;;;;;;;;;10291647;28;20085;-73
2021/12/28 21:48:35;;;;;;;;;;;;;;;;;;10296960;28;20122;-73
2021/12/28 21:53:39;;;;;;;2.83;0.93;;;;;;;;;;10301028;28;20303;-72
2021/12/28 21:58:42;;;;;;;3.28;0.60;;;;;;;;;;10282113;28;20584;-73
2021/12/28 22:03:45;;;;;;;1.20;0.63;;;;;;;;;;10300384;28;20038;-71
2021/12/28 22:08:51;;;;;;;5.35;0.55;;;;;;;;;;10282450;28;20118;-72
2021/12/28 22:13:54;;;;;;;2.75;0.70;;;;;;;;;;10273598;28;20041;-72
2021/12/28 22:18:57;;;;;;;2.40;0.40;;;;;;;;;;10273981;28;20043;-72
2021/12/28 22:24:01;;;;;;;2.15;0.50;;;;;;;;;;10276322;28;20043;-72
2021/12/28 22:29:04;;;;;;;1.20;0.30;;;;;;;;;;10292317;28;20205;-72
2021/12/28 22:34:07;;;;;;;2.13;0.87;;;;;;;;;;10291871;28;20034;-71
2021/12/28 22:39:11;;;;;;;0.30;0.30;;;;;;;;;;10288379;28;20058;-71
2021/12/28 22:44:14;;;;;;;4.60;1.05;;;;;;;;;;10291633;28;20037;-71
2021/12/28 22:49:17;;;;;;;1.27;0.38;;;;;;;;;;10292585;28;20120;-73
2021/12/28 22:54:22;;;;;;;1.40;0.60;;;;;;;;;;10293735;28;20713;-71
2021/12/28 22:59:25;;;;;;;;;;;;;;;;;;10297587;28;20306;-71
2021/12/28 23:04:27;;;;;;;2.25;0.43;;;;;;;;;;10304910;28;20377;-73
2021/12/28 23:09:32;;;;;;;1.17;0.43;;;;;;;;;;10299451;28;20098;-72
2021/12/28 23:14:35;;;;;;;1.05;0.80;;;;;;;;;;10304242;28;20049;-73
2021/12/28 23:19:38;;;;;;;2.20;0.45;;;;;;;;;;10295878;28;20100;-73
2021/12/28 23:24:42;;;;;;;1.02;0.40;;;;;;;;;;10309333;28;20129;-73
2021/12/28 23:29:45;;;;;;;1.48;0.55;;;;;;;;;;10287089;28;20042;-72
2021/12/28 23:34:48;;;;;;;3.28;0.80;;;;;;;;;;10300681;28;20457;-73
2021/12/28 23:39:52;;;;;;;3.15;1.00;;;;;;;;;;10286970;28;20039;-73
2021/12/28 23:44:55;;;;;;;0.88;0.73;;;;;;;;;;10287072;28;20133;-73
2021/12/28 23:49:58;;;;;;;4.97;1.10;;;;;;;;;;10308081;28;20087;-73
2021/12/28 23:55:03;;;;;;;3.95;1.05;;;;;;;;;;10315228;28;20062;-71
